createdAt,value
2023-05-17T00:03:16.111Z,71.06
2023-05-17T00:13:42.719Z,71.27
2023-05-17T00:24:09.457Z,71.34
2023-05-17T00:34:35.135Z,71.59
2023-05-17T00:45:00.967Z,71.79
2023-05-17T00:55:27.700Z,71.75
2023-05-17T01:05:53.650Z,72.03
2023-05-17T01:16:41.819Z,71.99
2023-05-17T01:27:08.511Z,72.25
2023-05-17T01:37:34.530Z,72.60
2023-05-17T01:48:09.732Z,72.94
2023-05-17T01:58:46.327Z,73.10
2023-05-17T02:09:12.242Z,73.18
2023-05-17T02:19:37.972Z,73.39
2023-05-17T02:30:04.920Z,73.40
2023-05-17T02:40:30.627Z,73.28
2023-05-17T02:50:56.446Z,73.14
2023-05-17T03:01:22.569Z,73.23
2023-05-17T03:11:48.314Z,73.41
2023-05-17T03:22:13.895Z,73.42
2023-05-17T03:32:41.596Z,73.16
2023-05-17T03:43:07.983Z,73.15
2023-05-17T03:53:34.260Z,73.12
2023-05-17T04:04:01.617Z,73.19
2023-05-17T04:14:27.255Z,73.09
2023-05-17T04:24:53.157Z,73.10
2023-05-17T04:35:19.310Z,73.04
2023-05-17T04:45:45.212Z,72.88
2023-05-17T04:56:11.420Z,73.02
2023-05-17T05:17:21.184Z,73.24
2023-05-17T05:27:46.880Z,72.86
2023-05-17T05:38:13.132Z,72.78
2023-05-17T05:48:42.046Z,72.43
2023-05-17T05:59:08.334Z,72.31
2023-05-17T06:09:34.115Z,72.30
2023-05-17T06:20:00.169Z,72.11
2023-05-17T06:30:28.162Z,72.14
2023-05-17T06:40:56.294Z,71.89
2023-05-17T06:51:22.729Z,71.52
2023-05-17T07:01:50.518Z,71.47
2023-05-17T07:12:14.966Z,71.69
2023-05-17T07:22:41.554Z,71.84
2023-05-17T07:33:07.899Z,71.83
2023-05-17T07:43:33.724Z,71.79
2023-05-17T07:53:59.799Z,71.89
2023-05-17T08:04:25.690Z,72.28
2023-05-17T08:14:52.061Z,72.37
2023-05-17T08:25:18.103Z,72.54
2023-05-17T08:35:44.219Z,72.46
2023-05-17T08:46:11.321Z,72.16
2023-05-17T08:56:40.312Z,72.11
2023-05-17T09:07:06.544Z,72.26
2023-05-17T09:17:34.131Z,72.35
2023-05-17T09:28:03.953Z,72.68
2023-05-17T09:38:31.113Z,72.95
2023-05-17T09:48:59.938Z,73.03
2023-05-17T09:59:28.824Z,73.01
2023-05-17T10:09:55.904Z,72.94
2023-05-17T10:20:23.556Z,72.44
2023-05-17T10:30:51.529Z,72.10
2023-05-17T10:41:17.153Z,72.17
2023-05-17T10:51:42.875Z,72.01
2023-05-17T11:02:10.323Z,72.14
2023-05-17T11:12:40.521Z,72.06
2023-05-17T11:23:08.370Z,71.74
2023-05-17T11:33:43.807Z,71.52
2023-05-17T11:44:26.250Z,71.56
2023-05-17T11:54:53.103Z,71.60
2023-05-17T12:05:23.763Z,71.50
2023-05-17T12:15:56.374Z,71.34
2023-05-17T12:26:23.427Z,71.32
2023-05-17T12:36:49.970Z,71.44
2023-05-17T12:47:15.975Z,71.26
2023-05-17T12:57:49.539Z,70.19
2023-05-17T13:08:25.128Z,70.26
2023-05-17T13:18:53.171Z,70.53
2023-05-17T13:29:23.083Z,70.49
2023-05-17T13:39:56.752Z,70.79
2023-05-17T13:50:24.057Z,70.90
2023-05-17T14:00:49.808Z,70.84
2023-05-17T14:11:15.769Z,70.74
2023-05-17T14:21:41.744Z,71.00
2023-05-17T14:32:08.817Z,71.13
2023-05-17T14:42:34.705Z,71.16
2023-05-17T14:53:01.390Z,71.08
2023-05-17T15:03:27.366Z,71.11
2023-05-17T15:13:52.989Z,71.16
2023-05-17T15:24:18.751Z,71.02
2023-05-17T15:34:45.496Z,71.05
2023-05-17T15:45:12.560Z,71.15
2023-05-17T15:55:38.657Z,71.12
2023-05-17T16:06:05.512Z,71.39
2023-05-17T16:16:31.636Z,71.34
2023-05-17T16:26:58.094Z,71.48
2023-05-17T16:37:24.169Z,71.80
2023-05-17T16:47:50.686Z,71.32
2023-05-17T16:58:16.299Z,71.57
2023-05-17T17:08:42.161Z,71.20
2023-05-17T17:19:08.041Z,71.12
2023-05-17T17:29:34.613Z,70.85
2023-05-17T17:40:00.445Z,71.18
2023-05-17T17:50:26.045Z,71.37
2023-05-17T18:00:52.081Z,71.08
2023-05-17T18:11:18.699Z,70.72
2023-05-17T18:21:44.906Z,70.84
2023-05-17T18:32:12.125Z,71.14
2023-05-17T18:42:38.071Z,70.99
2023-05-17T18:53:04.184Z,70.66
2023-05-17T19:03:29.844Z,70.26
2023-05-17T19:13:55.811Z,70.42
2023-05-17T19:24:21.473Z,70.89
2023-05-17T19:34:47.448Z,70.66
2023-05-17T19:45:14.811Z,70.47
2023-05-17T19:55:41.187Z,70.75
2023-05-17T20:06:07.232Z,70.73
2023-05-17T20:16:33.078Z,70.61
2023-05-17T20:26:59.487Z,70.64
2023-05-17T20:37:25.662Z,70.26
2023-05-17T20:47:52.431Z,69.77
2023-05-17T20:58:18.437Z,69.33
2023-05-17T21:08:44.845Z,69.29
2023-05-17T21:19:10.621Z,68.67
2023-05-17T21:29:36.413Z,68.36
2023-05-17T21:40:02.182Z,68.74
2023-05-17T21:50:28.500Z,69.52
2023-05-17T22:00:54.799Z,69.31
2023-05-17T22:11:22.972Z,68.87
2023-05-17T22:21:48.643Z,68.85
2023-05-17T22:32:15.643Z,68.09
2023-05-17T22:42:43.299Z,68.07
2023-05-17T22:53:11.312Z,68.58
2023-05-17T23:03:37.546Z,68.53
2023-05-17T23:14:03.793Z,68.31
2023-05-17T23:24:29.610Z,67.86
2023-05-17T23:34:58.533Z,67.86
2023-05-17T23:45:25.041Z,67.89
2023-05-17T23:55:51.116Z,67.67
